createdAt,value
2018-12-24T00:02:22.869Z,116.27
2018-12-24T00:05:20.229Z,113.77
2018-12-24T00:08:15.831Z,115.87
2018-12-24T00:11:11.955Z,115.53
2018-12-24T00:14:08.054Z,118.57
2018-12-24T00:17:04.284Z,113.77
2018-12-24T00:19:59.930Z,110.90
2018-12-24T00:22:55.644Z,111.70
2018-12-24T00:25:51.950Z,114.33
2018-12-24T00:28:53.516Z,111.23
2018-12-24T00:31:50.326Z,111.43
2018-12-24T00:34:46.216Z,109.70
2018-12-24T00:37:42.069Z,108.73
2018-12-24T00:40:37.817Z,106.77
2018-12-24T00:43:36.969Z,104.33
2018-12-24T00:46:31.835Z,106.47
2018-12-24T00:49:28.732Z,105.00
2018-12-24T00:52:24.818Z,101.83
2018-12-24T00:55:21.115Z,104.27
2018-12-24T00:58:16.858Z,103.10
2018-12-24T01:01:14.019Z,103.93
2018-12-24T01:04:10.063Z,100.60
2018-12-24T01:07:06.327Z,104.43
2018-12-24T01:10:05.048Z,105.47
2018-12-24T01:13:00.526Z,105.17
2018-12-24T01:15:56.331Z,101.60
2018-12-24T01:18:53.744Z,101.40
2018-12-24T01:21:49.993Z,102.57
2018-12-24T01:24:46.003Z,105.80
2018-12-24T01:27:42.681Z,104.97
2018-12-24T01:30:38.688Z,106.30
2018-12-24T01:33:35.033Z,106.27
2018-12-24T01:36:34.483Z,106.07
2018-12-24T01:39:30.888Z,104.63
2018-12-24T01:42:33.347Z,104.03
2018-12-24T01:45:24.412Z,102.60
2018-12-24T01:48:21.899Z,102.50
2018-12-24T01:51:19.004Z,109.17
2018-12-24T01:54:17.440Z,105.97
2018-12-24T01:57:14.563Z,104.13
2018-12-24T02:00:10.991Z,105.57
2018-12-24T02:03:07.249Z,102.53
2018-12-24T02:06:22.081Z,98.97
2018-12-24T02:09:21.345Z,96.20
2018-12-24T02:12:17.864Z,100.37
2018-12-24T02:15:17.556Z,102.37
2018-12-24T02:18:13.489Z,99.07
2018-12-24T02:21:10.828Z,100.77
2018-12-24T02:24:07.207Z,101.97
2018-12-24T02:27:03.175Z,97.43
2018-12-24T02:29:59.481Z,95.93
2018-12-24T02:32:57.062Z,103.77
2018-12-24T02:35:53.287Z,101.60
2018-12-24T02:38:49.442Z,99.67
2018-12-24T02:41:48.762Z,100.67
2018-12-24T02:44:44.777Z,100.27
2018-12-24T02:47:42.008Z,100.33
2018-12-24T02:50:37.959Z,96.13
2018-12-24T02:53:36.910Z,95.43
2018-12-24T02:56:34.146Z,97.97
2018-12-24T02:59:30.293Z,94.00
2018-12-24T03:02:26.397Z,94.67
2018-12-24T03:05:22.479Z,89.57
2018-12-24T03:08:20.048Z,84.53
2018-12-24T03:11:15.848Z,85.90
2018-12-24T03:14:11.733Z,88.57
2018-12-24T03:17:07.508Z,86.23
2018-12-24T03:20:07.541Z,91.80
2018-12-24T03:23:15.516Z,99.30
2018-12-24T03:26:13.688Z,105.63
2018-12-24T03:29:09.545Z,107.67
2018-12-24T03:32:05.662Z,96.90
2018-12-24T03:35:01.467Z,110.70
2018-12-24T03:37:58.005Z,83.70
2018-12-24T03:40:53.841Z,104.37
2018-12-24T03:43:49.890Z,96.83
2018-12-24T03:46:46.197Z,99.37
2018-12-24T03:49:42.859Z,96.10
2018-12-24T03:52:44.411Z,90.93
2018-12-24T03:55:40.166Z,91.20
2018-12-24T03:58:36.607Z,92.10
2018-12-24T04:01:34.743Z,90.47
2018-12-24T04:04:32.265Z,91.70
2018-12-24T04:07:29.006Z,91.17
2018-12-24T04:10:27.181Z,88.53
2018-12-24T04:13:23.698Z,83.80
2018-12-24T04:16:21.614Z,86.60
2018-12-24T04:19:20.308Z,86.47
2018-12-24T04:22:17.195Z,83.40
2018-12-24T04:25:13.795Z,86.63
2018-12-24T04:28:10.216Z,83.10
2018-12-24T04:31:06.879Z,87.07
2018-12-24T04:34:03.081Z,82.80
2018-12-24T04:36:59.529Z,81.67
2018-12-24T04:40:05.507Z,74.73
2018-12-24T04:43:03.527Z,77.27
2018-12-24T04:45:59.491Z,81.60
2018-12-24T04:48:56.632Z,75.13
2018-12-24T04:51:52.828Z,78.67
2018-12-24T04:54:49.207Z,82.73
2018-12-24T04:57:45.640Z,80.37
2018-12-24T05:00:41.885Z,78.07
2018-12-24T05:03:42.945Z,78.00
2018-12-24T05:06:40.051Z,77.87
2018-12-24T05:09:41.206Z,76.57
2018-12-24T05:12:43.968Z,75.67
2018-12-24T05:15:48.439Z,77.63
2018-12-24T05:18:48.611Z,74.43
2018-12-24T05:21:52.469Z,72.57
2018-12-24T05:24:54.085Z,66.50
2018-12-24T05:27:56.924Z,73.17
2018-12-24T05:30:59.779Z,66.77
2018-12-24T05:34:56.038Z,61.23
2018-12-24T05:41:54.535Z,62.93
2018-12-24T05:44:55.910Z,67.57
2018-12-24T05:48:41.397Z,59.97
2018-12-24T05:51:42.083Z,61.10
2018-12-24T05:55:12.590Z,64.70
2018-12-24T05:58:35.582Z,59.30
2018-12-24T06:01:52.329Z,61.40
2018-12-24T06:04:52.022Z,58.23
2018-12-24T06:07:50.416Z,57.67
2018-12-24T06:19:02.828Z,51.57
2018-12-24T06:25:30.376Z,46.87
2018-12-24T06:28:08.138Z,43.30
2018-12-24T06:31:14.410Z,44.50
2018-12-24T06:34:17.443Z,45.37
2018-12-24T06:37:30.751Z,45.10
2018-12-24T06:41:34.711Z,43.97
2018-12-24T06:44:21.200Z,40.37
2018-12-24T06:47:20.256Z,41.07
2018-12-24T06:50:17.826Z,41.93
2018-12-24T06:53:16.910Z,40.57
2018-12-24T06:56:17.144Z,41.73
2018-12-24T06:59:32.715Z,43.33
2018-12-24T07:02:30.502Z,42.20
2018-12-24T07:05:37.173Z,42.57
2018-12-24T07:08:48.146Z,41.30
2018-12-24T07:11:55.441Z,41.47
2018-12-24T07:14:52.289Z,41.60
2018-12-24T07:17:55.499Z,40.47
2018-12-24T07:20:54.661Z,41.70
2018-12-24T07:24:02.026Z,43.17
2018-12-24T07:26:59.407Z,42.57
2018-12-24T07:29:57.335Z,41.40
2018-12-24T07:33:00.316Z,41.93
2018-12-24T07:36:05.508Z,41.13
2018-12-24T07:39:05.907Z,40.10
2018-12-24T07:42:02.612Z,40.77
2018-12-24T07:45:04.607Z,40.37
2018-12-24T07:48:04.631Z,40.33
2018-12-24T07:54:56.155Z,39.87
2018-12-24T07:57:57.046Z,40.27
2018-12-24T08:00:56.709Z,38.37
2018-12-24T08:03:58.733Z,38.40
2018-12-24T08:19:45.154Z,40.37
2018-12-24T08:23:10.001Z,40.60
2018-12-24T08:35:17.049Z,38.27
2018-12-24T08:38:18.822Z,40.00
2018-12-24T08:41:29.125Z,40.10
2018-12-24T08:44:41.584Z,40.63
2018-12-24T08:47:59.146Z,38.43
2018-12-24T08:50:57.467Z,38.83
2018-12-24T08:53:54.553Z,37.97
2018-12-24T08:56:56.606Z,37.80
2018-12-24T08:59:57.074Z,39.10
2018-12-24T09:02:53.505Z,38.87
2018-12-24T09:05:49.595Z,38.27
2018-12-24T09:08:49.954Z,39.33
2018-12-24T09:12:35.431Z,38.47
2018-12-24T09:15:36.375Z,37.03
2018-12-24T09:18:36.688Z,38.10
2018-12-24T09:21:41.601Z,39.57
2018-12-24T09:25:10.144Z,39.00
2018-12-24T09:38:46.969Z,38.80
2018-12-24T09:42:21.099Z,40.77
2018-12-24T10:11:45.308Z,35.40
2018-12-24T10:18:41.487Z,37.27
2018-12-24T10:21:32.827Z,39.13
2018-12-24T10:28:13.009Z,37.00
2018-12-24T10:31:09.552Z,37.70
2018-12-24T10:34:51.450Z,35.70
2018-12-24T10:38:19.496Z,35.13
2018-12-24T10:42:10.829Z,35.33
2018-12-24T10:48:50.880Z,35.23
2018-12-24T10:51:57.918Z,36.57
2018-12-24T10:54:55.724Z,36.63
2018-12-24T10:58:01.450Z,35.90
2018-12-24T11:01:06.783Z,35.87
2018-12-24T11:04:05.759Z,36.47
2018-12-24T11:07:12.085Z,37.60
2018-12-24T11:10:46.711Z,36.73
2018-12-24T11:14:30.950Z,36.37
2018-12-24T11:16:59.439Z,37.97
2018-12-24T11:20:19.133Z,38.77
2018-12-24T11:26:23.388Z,40.73
2018-12-24T11:29:31.671Z,38.77
2018-12-24T11:33:21.500Z,39.13
2018-12-24T11:56:38.414Z,41.60
2018-12-24T12:25:13.242Z,45.90
2018-12-24T12:28:49.266Z,45.53
2018-12-24T12:32:06.084Z,45.00
2018-12-24T12:35:43.706Z,47.80
2018-12-24T12:39:12.818Z,48.67
2018-12-24T12:42:28.794Z,48.03
2018-12-24T12:46:04.305Z,46.43
2018-12-24T12:49:13.836Z,47.73
2018-12-24T12:52:09.987Z,44.63
2018-12-24T12:55:05.949Z,49.47
2018-12-24T12:58:25.993Z,50.90
2018-12-24T13:01:43.245Z,46.60
2018-12-24T13:04:42.542Z,49.50
2018-12-24T13:07:50.720Z,51.00
2018-12-24T13:10:57.332Z,56.40
2018-12-24T13:14:08.626Z,54.60
2018-12-24T13:17:23.937Z,57.47
2018-12-24T13:20:25.182Z,55.90
2018-12-24T13:23:18.821Z,58.17
2018-12-24T13:26:14.918Z,59.93
2018-12-24T13:29:11.298Z,61.00
2018-12-24T13:32:07.195Z,59.47
2018-12-24T13:35:05.124Z,56.03
2018-12-24T13:38:03.935Z,57.70
2018-12-24T13:41:00.003Z,57.33
2018-12-24T13:43:55.921Z,56.30
2018-12-24T13:46:51.561Z,59.37
2018-12-24T13:49:47.268Z,57.77
2018-12-24T13:52:44.037Z,59.87
2018-12-24T13:55:40.197Z,57.63
2018-12-24T13:58:36.103Z,57.17
2018-12-24T14:01:31.964Z,56.60
2018-12-24T14:04:27.668Z,57.70
2018-12-24T14:07:24.279Z,64.27
2018-12-24T14:10:20.058Z,65.40
2018-12-24T14:13:15.715Z,73.53
2018-12-24T14:16:16.701Z,62.47
2018-12-24T14:19:10.155Z,59.57
2018-12-24T14:22:06.177Z,64.83
2018-12-24T14:25:01.857Z,56.83
2018-12-24T14:27:57.655Z,58.33
2018-12-24T14:30:53.409Z,57.03
2018-12-24T14:33:50.101Z,60.80
2018-12-24T14:36:45.998Z,68.73
2018-12-24T14:39:42.011Z,62.47
2018-12-24T14:42:37.579Z,60.30
2018-12-24T14:45:34.566Z,58.20
